sensor_id;sensor_type;location;lat;lon;timestamp;pressure;altitude;pressure_sealevel;temperature;humidity
49945;BME280;35838;49.134;9.212;2022-09-24T00:00:17;99601.41;;;12.81;85.76
49945;BME280;35838;49.134;9.212;2022-09-24T00:01:51;99609.38;;;12.73;85.96
49945;BME280;35838;49.134;9.212;2022-09-24T00:03:25;99609.38;;;12.73;86.03
49945;BME280;35838;49.134;9.212;2022-09-24T00:04:58;99614.50;;;12.76;85.82
49945;BME280;35838;49.134;9.212;2022-09-24T00:06:34;99615.34;;;12.78;85.62
49945;BME280;35838;49.134;9.212;2022-09-24T00:08:06;99606.69;;;12.78;85.35
49945;BME280;35838;49.134;9.212;2022-09-24T00:09:41;99606.72;;;12.75;85.30
49945;BME280;35838;49.134;9.212;2022-09-24T00:11:15;99600.72;;;12.71;85.17
49945;BME280;35838;49.134;9.212;2022-09-24T00:12:50;99605.97;;;12.68;84.99
49945;BME280;35838;49.134;9.212;2022-09-24T00:14:24;99603.53;;;12.60;84.85
49945;BME280;35838;49.134;9.212;2022-09-24T00:16:01;99608.72;;;12.59;85.00
49945;BME280;35838;49.134;9.212;2022-09-24T00:17:33;99600.91;;;12.59;85.01
49945;BME280;35838;49.134;9.212;2022-09-24T00:19:07;99605.31;;;12.55;85.57
49945;BME280;35838;49.134;9.212;2022-09-24T00:20:41;99597.44;;;12.60;84.94
49945;BME280;35838;49.134;9.212;2022-09-24T00:22:13;99588.75;;;12.61;85.03
49945;BME280;35838;49.134;9.212;2022-09-24T00:23:48;99593.91;;;12.62;85.19
49945;BME280;35838;49.134;9.212;2022-09-24T00:25:20;99590.47;;;12.62;85.10
49945;BME280;35838;49.134;9.212;2022-09-24T00:27:06;99586.16;;;12.61;84.97
49945;BME280;35838;49.134;9.212;2022-09-24T00:28:43;99586.97;;;12.63;84.94
49945;BME280;35838;49.134;9.212;2022-09-24T00:30:17;99581.84;;;12.57;84.88
49945;BME280;35838;49.134;9.212;2022-09-24T00:31:52;99590.53;;;12.57;84.60
49945;BME280;35838;49.134;9.212;2022-09-24T00:33:26;99589.75;;;12.53;84.69
49945;BME280;35838;49.134;9.212;2022-09-24T00:34:58;99587.88;;;12.62;84.30
49945;BME280;35838;49.134;9.212;2022-09-24T00:36:32;99581.78;;;12.61;84.66
49945;BME280;35838;49.134;9.212;2022-09-24T00:38:07;99584.50;;;12.55;84.58
49945;BME280;35838;49.134;9.212;2022-09-24T00:39:39;99572.38;;;12.56;84.52
49945;BME280;35838;49.134;9.212;2022-09-24T00:41:14;99577.59;;;12.52;84.46
49945;BME280;35838;49.134;9.212;2022-09-24T00:42:46;99580.16;;;12.56;84.45
49945;BME280;35838;49.134;9.212;2022-09-24T00:46:32;99583.59;;;12.58;84.24
49945;BME280;35838;49.134;9.212;2022-09-24T00:48:08;99579.25;;;12.57;84.15
49945;BME280;35838;49.134;9.212;2022-09-24T00:49:43;99572.38;;;12.56;84.36
49945;BME280;35838;49.134;9.212;2022-09-24T00:51:17;99571.41;;;12.60;84.27
49945;BME280;35838;49.134;9.212;2022-09-24T00:52:54;99572.28;;;12.60;84.68
49945;BME280;35838;49.134;9.212;2022-09-24T00:54:29;99564.47;;;12.59;84.82
49945;BME280;35838;49.134;9.212;2022-09-24T00:56:01;99572.25;;;12.62;84.10
49945;BME280;35838;49.134;9.212;2022-09-24T00:57:37;99567.91;;;12.61;84.03
49945;BME280;35838;49.134;9.212;2022-09-24T00:59:14;99569.63;;;12.62;84.04
49945;BME280;35838;49.134;9.212;2022-09-24T01:00:48;99560.06;;;12.62;83.92
49945;BME280;35838;49.134;9.212;2022-09-24T01:02:28;99560.94;;;12.63;83.69
49945;BME280;35838;49.134;9.212;2022-09-24T01:04:01;99561.88;;;12.60;84.00
49945;BME280;35838;49.134;9.212;2022-09-24T01:05:37;99554.94;;;12.59;84.14
49945;BME280;35838;49.134;9.212;2022-09-24T01:07:09;99550.56;;;12.60;84.24
49945;BME280;35838;49.134;9.212;2022-09-24T01:08:43;99540.13;;;12.63;84.02
49945;BME280;35838;49.134;9.212;2022-09-24T01:10:22;99541.84;;;12.64;83.71
49945;BME280;35838;49.134;9.212;2022-09-24T01:12:18;99544.53;;;12.59;84.04
49945;BME280;35838;49.134;9.212;2022-09-24T01:14:17;99552.34;;;12.58;84.42
49945;BME280;35838;49.134;9.212;2022-09-24T01:16:02;99547.25;;;12.51;84.02
49945;BME280;35838;49.134;9.212;2022-09-24T01:17:45;99553.38;;;12.47;84.10
49945;BME280;35838;49.134;9.212;2022-09-24T01:21:33;99535.13;;;12.50;84.34
49945;BME280;35838;49.134;9.212;2022-09-24T01:23:32;99535.13;;;12.50;84.60
49945;BME280;35838;49.134;9.212;2022-09-24T01:25:15;99536.84;;;12.51;84.53
49945;BME280;35838;49.134;9.212;2022-09-24T01:26:59;99536.81;;;12.54;84.68
49945;BME280;35838;49.134;9.212;2022-09-24T01:28:40;99534.16;;;12.56;84.73
49945;BME280;35838;49.134;9.212;2022-09-24T01:30:25;99528.09;;;12.56;84.48
49945;BME280;35838;49.134;9.212;2022-09-24T01:32:06;99523.78;;;12.54;85.05
49945;BME280;35838;49.134;9.212;2022-09-24T01:33:43;99533.41;;;12.49;84.99
49945;BME280;35838;49.134;9.212;2022-09-24T01:35:22;99528.19;;;12.49;84.61
49945;BME280;35838;49.134;9.212;2022-09-24T01:36:55;99531.63;;;12.51;84.33
49945;BME280;35838;49.134;9.212;2022-09-24T01:38:34;99531.63;;;12.51;84.53
49945;BME280;35838;49.134;9.212;2022-09-24T01:40:11;99523.72;;;12.58;84.21
49945;BME280;35838;49.134;9.212;2022-09-24T01:41:46;99526.25;;;12.61;83.93
49945;BME280;35838;49.134;9.212;2022-09-24T01:43:21;99514.09;;;12.61;83.77
49945;BME280;35838;49.134;9.212;2022-09-24T01:44:58;99514.03;;;12.64;83.53
49945;BME280;35838;49.134;9.212;2022-09-24T01:46:36;99517.44;;;12.68;83.65
49945;BME280;35838;49.134;9.212;2022-09-24T01:48:08;99523.78;;;12.53;84.36
49945;BME280;35838;49.134;9.212;2022-09-24T01:49:42;99519.38;;;12.57;84.58
49945;BME280;35838;49.134;9.212;2022-09-24T01:51:17;99517.63;;;12.59;84.89
49945;BME280;35838;49.134;9.212;2022-09-24T01:52:58;99518.53;;;12.56;85.47
49945;BME280;35838;49.134;9.212;2022-09-24T01:54:35;99515.06;;;12.57;85.52
49945;BME280;35838;49.134;9.212;2022-09-24T01:56:15;99524.66;;;12.53;85.68
49945;BME280;35838;49.134;9.212;2022-09-24T01:57:55;99520.44;;;12.48;85.82
49945;BME280;35838;49.134;9.212;2022-09-24T01:59:35;99517.84;;;12.46;86.25
49945;BME280;35838;49.134;9.212;2022-09-24T02:01:12;99509.25;;;12.41;86.13
49945;BME280;35838;49.134;9.212;2022-09-24T02:02:55;99502.34;;;12.40;86.27
49945;BME280;35838;49.134;9.212;2022-09-24T02:04:34;99505.00;;;12.37;86.33
49945;BME280;35838;49.134;9.212;2022-09-24T02:06:11;99504.13;;;12.38;86.58
49945;BME280;35838;49.134;9.212;2022-09-24T02:07:51;99513.66;;;12.37;86.69
49945;BME280;35838;49.134;9.212;2022-09-24T02:09:29;99500.69;;;12.36;86.92
49945;BME280;35838;49.134;9.212;2022-09-24T02:11:03;99507.53;;;12.40;86.90
49945;BME280;35838;49.134;9.212;2022-09-24T02:12:38;99496.31;;;12.36;86.68
49945;BME280;35838;49.134;9.212;2022-09-24T02:14:13;99495.38;;;12.42;86.56
49945;BME280;35838;49.134;9.212;2022-09-24T02:15:50;99498.13;;;12.33;86.62
49945;BME280;35838;49.134;9.212;2022-09-24T02:17:26;99502.44;;;12.34;86.78
49945;BME280;35838;49.134;9.212;2022-09-24T02:19:08;99504.19;;;12.35;87.01
49945;BME280;35838;49.134;9.212;2022-09-24T02:20:43;99502.41;;;12.37;87.03
49945;BME280;35838;49.134;9.212;2022-09-24T02:22:19;99505.91;;;12.36;87.17
49945;BME280;35838;49.134;9.212;2022-09-24T02:23:56;99501.63;;;12.32;87.41
49945;BME280;35838;49.134;9.212;2022-09-24T02:25:36;99500.78;;;12.30;87.62
49945;BME280;35838;49.134;9.212;2022-09-24T02:27:11;99500.03;;;12.23;87.97
49945;BME280;35838;49.134;9.212;2022-09-24T02:28:43;99499.16;;;12.22;88.09
49945;BME280;35838;49.134;9.212;2022-09-24T02:30:17;99496.53;;;12.26;87.62
49945;BME280;35838;49.134;9.212;2022-09-24T02:31:53;99496.41;;;12.33;87.08
49945;BME280;35838;49.134;9.212;2022-09-24T02:33:29;99501.59;;;12.33;87.07
49945;BME280;35838;49.134;9.212;2022-09-24T02:35:21;99490.28;;;12.36;87.05
49945;BME280;35838;49.134;9.212;2022-09-24T02:36:58;99492.97;;;12.30;87.36
49945;BME280;35838;49.134;9.212;2022-09-24T02:38:33;99492.16;;;12.28;87.77
49945;BME280;35838;49.134;9.212;2022-09-24T02:40:08;99490.41;;;12.28;87.63
49945;BME280;35838;49.134;9.212;2022-09-24T02:41:44;99497.38;;;12.28;87.64
49945;BME280;35838;49.134;9.212;2022-09-24T02:43:17;99494.75;;;12.28;87.65
49945;BME280;35838;49.134;9.212;2022-09-24T02:44:51;99482.69;;;12.23;87.88
49945;BME280;35838;49.134;9.212;2022-09-24T02:46:27;99483.47;;;12.29;87.85
49945;BME280;35838;49.134;9.212;2022-09-24T02:48:01;99482.59;;;12.28;88.08
49945;BME280;35838;49.134;9.212;2022-09-24T02:49:35;99487.84;;;12.27;87.99
49945;BME280;35838;49.134;9.212;2022-09-24T02:51:12;99488.69;;;12.29;87.99
49945;BME280;35838;49.134;9.212;2022-09-24T02:52:46;99479.06;;;12.31;87.83
49945;BME280;35838;49.134;9.212;2022-09-24T02:54:20;99483.47;;;12.29;87.40
49945;BME280;35838;49.134;9.212;2022-09-24T02:55:55;99482.72;;;12.22;87.69
49945;BME280;35838;49.134;9.212;2022-09-24T02:57:30;99487.03;;;12.21;87.59
49945;BME280;35838;49.134;9.212;2022-09-24T02:59:05;99488.72;;;12.26;87.29
49945;BME280;35838;49.134;9.212;2022-09-24T03:00:37;99480.03;;;12.27;87.32
49945;BME280;35838;49.134;9.212;2022-09-24T03:02:11;99485.25;;;12.27;87.31
49945;BME280;35838;49.134;9.212;2022-09-24T03:03:45;99480.88;;;12.27;87.79
49945;BME280;35838;49.134;9.212;2022-09-24T03:05:19;99489.59;;;12.25;87.20
49945;BME280;35838;49.134;9.212;2022-09-24T03:06:56;99488.75;;;12.22;87.12
49945;BME280;35838;49.134;9.212;2022-09-24T03:08:30;99494.72;;;12.29;86.73
49945;BME280;35838;49.134;9.212;2022-09-24T03:10:06;99494.69;;;12.32;86.68
49945;BME280;35838;49.134;9.212;2022-09-24T03:11:41;99486.78;;;12.37;86.68
49945;BME280;35838;49.134;9.212;2022-09-24T03:13:14;99490.31;;;12.33;86.76
49945;BME280;35838;49.134;9.212;2022-09-24T03:14:47;99493.75;;;12.35;86.83
49945;BME280;35838;49.134;9.212;2022-09-24T03:16:21;99497.28;;;12.31;87.05
49945;BME280;35838;49.134;9.212;2022-09-24T03:17:56;99494.69;;;12.32;87.04
49945;BME280;35838;49.134;9.212;2022-09-24T03:19:30;99496.47;;;12.29;86.93
49945;BME280;35838;49.134;9.212;2022-09-24T03:21:06;99500.78;;;12.30;87.25
49945;BME280;35838;49.134;9.212;2022-09-24T03:22:41;99496.41;;;12.33;87.34
49945;BME280;35838;49.134;9.212;2022-09-24T03:24:15;99490.28;;;12.34;87.29
49945;BME280;35838;49.134;9.212;2022-09-24T03:25:49;99494.69;;;12.31;87.55
49945;BME280;35838;49.134;9.212;2022-09-24T03:27:20;99491.19;;;12.33;87.93
49945;BME280;35838;49.134;9.212;2022-09-24T03:28:54;99497.38;;;12.28;88.22
49945;BME280;35838;49.134;9.212;2022-09-24T03:30:28;99496.41;;;12.33;88.16
49945;BME280;35838;49.134;9.212;2022-09-24T03:32:14;99490.44;;;12.27;88.32
49945;BME280;35838;49.134;9.212;2022-09-24T03:33:47;99493.94;;;12.26;88.45
49945;BME280;35838;49.134;9.212;2022-09-24T03:35:21;99484.53;;;12.17;89.30
49945;BME280;35838;49.134;9.212;2022-09-24T03:36:53;99476.72;;;12.18;89.47
49945;BME280;35838;49.134;9.212;2022-09-24T03:38:29;99479.16;;;12.26;89.24
49945;BME280;35838;49.134;9.212;2022-09-24T03:40:04;99469.56;;;12.30;88.82
49945;BME280;35838;49.134;9.212;2022-09-24T03:41:36;99460.88;;;12.31;88.82
49945;BME280;35838;49.134;9.212;2022-09-24T03:43:10;99454.84;;;12.27;88.93
49945;BME280;35838;49.134;9.212;2022-09-24T03:44:41;99453.13;;;12.26;89.23
49945;BME280;35838;49.134;9.212;2022-09-24T03:46:15;99452.28;;;12.26;89.39
49945;BME280;35838;49.134;9.212;2022-09-24T03:47:49;99451.47;;;12.23;89.45
49945;BME280;35838;49.134;9.212;2022-09-24T03:49:21;99448.94;;;12.20;89.34
49945;BME280;35838;49.134;9.212;2022-09-24T03:50:56;99452.28;;;12.26;88.97
49945;BME280;35838;49.134;9.212;2022-09-24T03:52:27;99455.78;;;12.25;88.79
49945;BME280;35838;49.134;9.212;2022-09-24T03:54:04;99462.69;;;12.26;88.46
49945;BME280;35838;49.134;9.212;2022-09-24T03:55:41;99457.53;;;12.22;88.73
49945;BME280;35838;49.134;9.212;2022-09-24T03:57:13;99453.31;;;12.18;89.12
49945;BME280;35838;49.134;9.212;2022-09-24T03:58:47;99443.66;;;12.23;89.35
49945;BME280;35838;49.134;9.212;2022-09-24T04:00:21;99454.06;;;12.23;89.32
49945;BME280;35838;49.134;9.212;2022-09-24T04:01:53;99454.13;;;12.19;89.61
49945;BME280;35838;49.134;9.212;2022-09-24T04:03:27;99460.22;;;12.18;89.58
49945;BME280;35838;49.134;9.212;2022-09-24T04:05:01;99461.09;;;12.17;89.78
49945;BME280;35838;49.134;9.212;2022-09-24T04:06:33;99448.97;;;12.17;89.94
49945;BME280;35838;49.134;9.212;2022-09-24T04:08:07;99458.50;;;12.18;89.75
49945;BME280;35838;49.134;9.212;2022-09-24T04:09:41;99455.06;;;12.16;89.88
49945;BME280;35838;49.134;9.212;2022-09-24T04:11:14;99450.63;;;12.21;89.53
49945;BME280;35838;49.134;9.212;2022-09-24T04:12:48;99457.63;;;12.19;89.57
49945;BME280;35838;49.134;9.212;2022-09-24T04:14:22;99457.53;;;12.22;89.55
49945;BME280;35838;49.134;9.212;2022-09-24T04:16:00;99456.78;;;12.17;89.57
49945;BME280;35838;49.134;9.212;2022-09-24T04:17:32;99456.75;;;12.20;89.60
49945;BME280;35838;49.134;9.212;2022-09-24T04:19:06;99445.50;;;12.18;89.52
49945;BME280;35838;49.134;9.212;2022-09-24T04:20:40;99448.09;;;12.17;89.65
49945;BME280;35838;49.134;9.212;2022-09-24T04:22:15;99442.88;;;12.18;89.54
49945;BME280;35838;49.134;9.212;2022-09-24T04:23:49;99453.25;;;12.20;89.58
49945;BME280;35838;49.134;9.212;2022-09-24T04:25:27;99444.63;;;12.18;89.78
49945;BME280;35838;49.134;9.212;2022-09-24T04:27:01;99438.56;;;12.17;90.13
49945;BME280;35838;49.134;9.212;2022-09-24T04:28:35;99433.38;;;12.17;90.02
49945;BME280;35838;49.134;9.212;2022-09-24T04:30:10;99435.16;;;12.14;89.96
49945;BME280;35838;49.134;9.212;2022-09-24T04:31:45;99441.28;;;12.11;90.08
49945;BME280;35838;49.134;9.212;2022-09-24T04:33:16;99441.25;;;12.13;89.97
49945;BME280;35838;49.134;9.212;2022-09-24T04:34:50;99432.56;;;12.12;89.74
49945;BME280;35838;49.134;9.212;2022-09-24T04:36:22;99438.69;;;12.11;90.01
49945;BME280;35838;49.134;9.212;2022-09-24T04:37:56;99434.34;;;12.12;89.95
49945;BME280;35838;49.134;9.212;2022-09-24T04:39:30;99438.69;;;12.11;89.78
49945;BME280;35838;49.134;9.212;2022-09-24T04:41:08;99437.78;;;12.14;89.78
49945;BME280;35838;49.134;9.212;2022-09-24T04:42:43;99429.13;;;12.12;89.85
49945;BME280;35838;49.134;9.212;2022-09-24T04:44:17;99434.34;;;12.12;89.82
49945;BME280;35838;49.134;9.212;2022-09-24T04:45:51;99439.56;;;12.09;90.04
49945;BME280;35838;49.134;9.212;2022-09-24T04:47:25;99440.56;;;12.03;90.37
49945;BME280;35838;49.134;9.212;2022-09-24T04:48:59;99439.56;;;12.09;90.24
49945;BME280;35838;49.134;9.212;2022-09-24T04:50:33;99442.16;;;12.10;90.10
49945;BME280;35838;49.134;9.212;2022-09-24T04:52:08;99441.38;;;12.06;90.02
49945;BME280;35838;49.134;9.212;2022-09-24T04:53:39;99437.91;;;12.06;90.01
49945;BME280;35838;49.134;9.212;2022-09-24T04:55:14;99443.97;;;12.05;90.06
49945;BME280;35838;49.134;9.212;2022-09-24T04:56:53;99437.91;;;12.06;89.95
49945;BME280;35838;49.134;9.212;2022-09-24T04:58:26;99436.22;;;12.03;90.13
49945;BME280;35838;49.134;9.212;2022-09-24T05:00:01;99446.69;;;11.96;90.21
49945;BME280;35838;49.134;9.212;2022-09-24T05:01:36;99437.97;;;12.03;89.83
49945;BME280;35838;49.134;9.212;2022-09-24T05:03:10;99449.28;;;11.99;90.08
49945;BME280;35838;49.134;9.212;2022-09-24T05:04:44;99451.00;;;12.00;89.96
49945;BME280;35838;49.134;9.212;2022-09-24T05:06:18;99448.38;;;12.01;89.74
49945;BME280;35838;49.134;9.212;2022-09-24T05:07:52;99449.31;;;11.96;89.89
49945;BME280;35838;49.134;9.212;2022-09-24T05:09:26;99443.31;;;11.92;89.54
49945;BME280;35838;49.134;9.212;2022-09-24T05:11:02;99441.53;;;11.94;89.38
49945;BME280;35838;49.134;9.212;2022-09-24T09:49:47;99541.94;;;14.57;79.03
49945;BME280;35838;49.134;9.212;2022-09-24T09:51:25;99534.97;;;14.57;79.46
49945;BME280;35838;49.134;9.212;2022-09-24T09:52:59;99539.13;;;14.66;80.51
49945;BME280;35838;49.134;9.212;2022-09-24T09:54:35;99530.09;;;14.78;80.47
49945;BME280;35838;49.134;9.212;2022-09-24T09:56:09;99531.72;;;14.82;79.43
49945;BME280;35838;49.134;9.212;2022-09-24T09:57:43;99528.91;;;14.90;78.92
49945;BME280;35838;49.134;9.212;2022-09-24T10:00:49;99529.91;;;14.84;79.76
49945;BME280;35838;49.134;9.212;2022-09-24T10:07:08;99535.75;;;14.94;80.38
49945;BME280;35838;49.134;9.212;2022-09-24T10:08:42;99537.19;;;15.04;79.69
49945;BME280;35838;49.134;9.212;2022-09-24T10:10:18;99531.94;;;15.06;79.49
49945;BME280;35838;49.134;9.212;2022-09-24T10:11:54;99529.09;;;15.14;79.40
49945;BME280;35838;49.134;9.212;2022-09-24T10:13:38;99529.72;;;15.24;78.77
49945;BME280;35838;49.134;9.212;2022-09-24T10:15:18;99527.81;;;15.29;78.00
49945;BME280;35838;49.134;9.212;2022-09-24T10:16:53;99524.22;;;15.31;78.37
49945;BME280;35838;49.134;9.212;2022-09-24T10:18:30;99519.63;;;15.40;78.39
49945;BME280;35838;49.134;9.212;2022-09-24T10:20:08;99523.88;;;15.44;78.00
49945;BME280;35838;49.134;9.212;2022-09-24T10:21:48;99520.16;;;15.51;76.92
49945;BME280;35838;49.134;9.212;2022-09-24T10:23:31;99524.41;;;15.55;76.34
49945;BME280;35838;49.134;9.212;2022-09-24T10:25:15;99520.69;;;15.62;75.81
49945;BME280;35838;49.134;9.212;2022-09-24T10:26:50;99521.81;;;15.55;75.31
49945;BME280;35838;49.134;9.212;2022-09-24T10:28:25;99532.16;;;15.58;75.22
49945;BME280;35838;49.134;9.212;2022-09-24T10:30:14;99527.72;;;15.60;75.20
49945;BME280;35838;49.134;9.212;2022-09-24T10:32:02;99537.72;;;15.76;76.42
49945;BME280;35838;49.134;9.212;2022-09-24T10:33:37;99536.00;;;15.75;74.94
49945;BME280;35838;49.134;9.212;2022-09-24T10:35:25;99541.34;;;15.72;73.67
49945;BME280;35838;49.134;9.212;2022-09-24T10:37:01;99538.88;;;15.67;73.50
49945;BME280;35838;49.134;9.212;2022-09-24T10:38:38;99534.41;;;15.69;74.10
49945;BME280;35838;49.134;9.212;2022-09-24T10:40:14;99531.63;;;15.75;73.99
49945;BME280;35838;49.134;9.212;2022-09-24T10:41:51;99526.03;;;15.88;73.37
49945;BME280;35838;49.134;9.212;2022-09-24T10:43:26;99529.16;;;15.99;73.62
49945;BME280;35838;49.134;9.212;2022-09-24T10:45:02;99532.28;;;16.10;73.89
49945;BME280;35838;49.134;9.212;2022-09-24T10:46:47;99533.44;;;16.02;73.18
49945;BME280;35838;49.134;9.212;2022-09-24T10:48:26;99528.03;;;16.08;72.68
49945;BME280;35838;49.134;9.212;2022-09-24T10:50:22;99530.94;;;16.25;73.42
49945;BME280;35838;49.134;9.212;2022-09-24T10:52:03;99527.38;;;16.26;72.51
49945;BME280;35838;49.134;9.212;2022-09-24T10:53:53;99529.81;;;16.33;71.16
49945;BME280;35838;49.134;9.212;2022-09-24T10:55:38;99522.88;;;16.32;71.68
49945;BME280;35838;49.134;9.212;2022-09-24T10:57:23;99531.03;;;16.22;71.16
49945;BME280;35838;49.134;9.212;2022-09-24T10:59:26;99522.28;;;16.23;71.63
49945;BME280;35838;49.134;9.212;2022-09-24T11:01:10;99526.78;;;16.18;71.80
49945;BME280;35838;49.134;9.212;2022-09-24T11:03:08;99528.31;;;16.25;71.79
49945;BME280;35838;49.134;9.212;2022-09-24T11:04:50;99535.16;;;16.03;71.14
49945;BME280;35838;49.134;9.212;2022-09-24T11:06:41;99526.09;;;16.13;72.12
49945;BME280;35838;49.134;9.212;2022-09-24T11:08:23;99524.91;;;16.23;72.00
49945;BME280;35838;49.134;9.212;2022-09-24T11:10:13;99520.03;;;16.38;71.92
49945;BME280;35838;49.134;9.212;2022-09-24T11:11:57;99519.06;;;16.40;71.61
49945;BME280;35838;49.134;9.212;2022-09-24T11:13:43;99504.59;;;16.55;72.41
49945;BME280;35838;49.134;9.212;2022-09-24T11:15:29;99503.47;;;16.63;71.83
49945;BME280;35838;49.134;9.212;2022-09-24T11:17:20;99510.53;;;16.60;70.40
49945;BME280;35838;49.134;9.212;2022-09-24T11:19:00;99517.03;;;16.49;70.23
49945;BME280;35838;49.134;9.212;2022-09-24T11:20:35;99521.25;;;16.27;70.50
49945;BME280;35838;49.134;9.212;2022-09-24T11:22:13;99516.06;;;16.26;71.34
49945;BME280;35838;49.134;9.212;2022-09-24T11:24:02;99516.91;;;16.26;71.29
49945;BME280;35838;49.134;9.212;2022-09-24T11:25:48;99513.31;;;16.31;72.35
49945;BME280;35838;49.134;9.212;2022-09-24T11:27:37;99513.44;;;16.26;72.61
49945;BME280;35838;49.134;9.212;2022-09-24T11:29:25;99514.03;;;16.34;72.96
49945;BME280;35838;49.134;9.212;2022-09-24T11:31:08;99512.16;;;16.39;71.67
49945;BME280;35838;49.134;9.212;2022-09-24T11:33:02;99515.38;;;16.46;71.11
49945;BME280;35838;49.134;9.212;2022-09-24T11:34:53;99511.94;;;16.45;70.88
49945;BME280;35838;49.134;9.212;2022-09-24T11:36:42;99511.19;;;16.42;71.04
49945;BME280;35838;49.134;9.212;2022-09-24T11:38:29;99514.25;;;16.28;71.02
49945;BME280;35838;49.134;9.212;2022-09-24T11:40:18;99515.91;;;16.31;71.68
49945;BME280;35838;49.134;9.212;2022-09-24T11:42:05;99512.66;;;16.24;71.72
49945;BME280;35838;49.134;9.212;2022-09-24T11:43:55;99501.38;;;16.22;71.86
49945;BME280;35838;49.134;9.212;2022-09-24T11:45:43;99501.22;;;16.26;73.12
49945;BME280;35838;49.134;9.212;2022-09-24T11:47:30;99502.22;;;16.22;72.65
49945;BME280;35838;49.134;9.212;2022-09-24T11:49:24;99499.41;;;16.28;73.30
49945;BME280;35838;49.134;9.212;2022-09-24T11:51:08;99497.59;;;16.31;73.38
49945;BME280;35838;49.134;9.212;2022-09-24T11:52:50;99497.59;;;16.31;72.10
49945;BME280;35838;49.134;9.212;2022-09-24T11:54:31;99493.41;;;16.25;71.52
49945;BME280;35838;49.134;9.212;2022-09-24T11:56:11;99495.94;;;16.28;71.71
49945;BME280;35838;49.134;9.212;2022-09-24T11:58:03;99494.22;;;16.27;71.90
49945;BME280;35838;49.134;9.212;2022-09-24T11:59:44;99493.25;;;16.29;71.48
49945;BME280;35838;49.134;9.212;2022-09-24T12:01:24;99496.84;;;16.27;71.69
49945;BME280;35838;49.134;9.212;2022-09-24T12:03:01;99495.50;;;16.15;72.27
49945;BME280;35838;49.134;9.212;2022-09-24T12:04:47;99489.25;;;16.19;72.97
49945;BME280;35838;49.134;9.212;2022-09-24T12:06:26;99487.34;;;16.24;73.86
49945;BME280;35838;49.134;9.212;2022-09-24T12:08:05;99490.56;;;16.31;73.95
49945;BME280;35838;49.134;9.212;2022-09-24T12:09:48;99491.06;;;16.17;72.25
49945;BME280;35838;49.134;9.212;2022-09-24T12:11:25;99490.94;;;16.20;72.22
49945;BME280;35838;49.134;9.212;2022-09-24T12:13:10;99489.06;;;16.25;72.59
49945;BME280;35838;49.134;9.212;2022-09-24T12:14:51;99495.78;;;16.33;73.13
49945;BME280;35838;49.134;9.212;2022-09-24T12:16:30;99491.22;;;16.38;74.69
49945;BME280;35838;49.134;9.212;2022-09-24T12:18:10;99489.31;;;16.43;75.11
49945;BME280;35838;49.134;9.212;2022-09-24T12:19:49;99484.09;;;16.43;75.29
49945;BME280;35838;49.134;9.212;2022-09-24T12:21:25;99478.03;;;16.41;75.11
49945;BME280;35838;49.134;9.212;2022-09-24T12:23:07;99476.22;;;16.43;75.34
49945;BME280;35838;49.134;9.212;2022-09-24T12:24:43;99479.75;;;16.42;75.80
49945;BME280;35838;49.134;9.212;2022-09-24T12:26:20;99474.44;;;16.43;76.02
49945;BME280;35838;49.134;9.212;2022-09-24T12:27:57;99484.03;;;16.44;76.59
49945;BME280;35838;49.134;9.212;2022-09-24T12:29:44;99488.50;;;16.41;76.99
49945;BME280;35838;49.134;9.212;2022-09-24T12:31:44;99482.47;;;16.39;76.26
49945;BME280;35838;49.134;9.212;2022-09-24T12:33:39;99482.53;;;16.37;74.75
49945;BME280;35838;49.134;9.212;2022-09-24T12:35:25;99476.41;;;16.37;74.07
49945;BME280;35838;49.134;9.212;2022-09-24T12:37:05;99477.28;;;16.37;74.68
49945;BME280;35838;49.134;9.212;2022-09-24T12:38:46;99479.84;;;16.39;76.52
49945;BME280;35838;49.134;9.212;2022-09-24T12:40:37;99474.78;;;16.34;77.10
49945;BME280;35838;49.134;9.212;2022-09-24T12:42:18;99478.34;;;16.32;76.22
49945;BME280;35838;49.134;9.212;2022-09-24T12:43:57;99476.81;;;16.26;75.44
49945;BME280;35838;49.134;9.212;2022-09-24T12:45:35;99476.97;;;16.21;75.13
49945;BME280;35838;49.134;9.212;2022-09-24T12:47:18;99479.72;;;16.17;76.41
49945;BME280;35838;49.134;9.212;2022-09-24T12:48:54;99484.81;;;16.21;76.22
49945;BME280;35838;49.134;9.212;2022-09-24T12:50:30;99478.88;;;16.16;76.50
49945;BME280;35838;49.134;9.212;2022-09-24T12:52:16;99486.03;;;16.11;76.91
49945;BME280;35838;49.134;9.212;2022-09-24T12:53:57;99481.66;;;16.11;77.10
49945;BME280;35838;49.134;9.212;2022-09-24T12:55:33;99479.06;;;16.10;77.49
49945;BME280;35838;49.134;9.212;2022-09-24T12:57:12;99478.13;;;16.12;77.56
49945;BME280;35838;49.134;9.212;2022-09-24T12:58:48;99474.00;;;16.05;77.83
49945;BME280;35838;49.134;9.212;2022-09-24T13:00:39;99486.03;;;16.11;77.99
49945;BME280;35838;49.134;9.212;2022-09-24T13:02:17;99475.47;;;16.14;78.83
49945;BME280;35838;49.134;9.212;2022-09-24T13:04:02;99481.66;;;16.11;78.63
49945;BME280;35838;49.134;9.212;2022-09-24T13:05:45;99483.63;;;16.05;79.25
49945;BME280;35838;49.134;9.212;2022-09-24T13:07:28;99479.28;;;16.04;79.62
49945;BME280;35838;49.134;9.212;2022-09-24T13:09:32;99477.28;;;15.85;78.29
49945;BME280;35838;49.134;9.212;2022-09-24T13:11:25;99473.81;;;15.85;79.36
49945;BME280;35838;49.134;9.212;2022-09-24T13:12:59;99471.13;;;15.86;79.92
49945;BME280;35838;49.134;9.212;2022-09-24T13:14:34;99472.69;;;15.92;80.97
49945;BME280;35838;49.134;9.212;2022-09-24T13:16:18;99465.69;;;15.92;81.63
49945;BME280;35838;49.134;9.212;2022-09-24T13:18:17;99460.53;;;15.91;82.06
49945;BME280;35838;49.134;9.212;2022-09-24T13:19:58;99457.81;;;15.94;81.65
49945;BME280;35838;49.134;9.212;2022-09-24T13:21:32;99453.34;;;15.96;83.09
49945;BME280;35838;49.134;9.212;2022-09-24T13:23:13;99459.47;;;15.96;82.84
49945;BME280;35838;49.134;9.212;2022-09-24T13:24:51;99458.56;;;15.97;83.13
49945;BME280;35838;49.134;9.212;2022-09-24T13:26:29;99461.22;;;15.96;83.36
49945;BME280;35838;49.134;9.212;2022-09-24T13:28:20;99454.22;;;15.96;84.56